sensor_id;sensor_type;location;lat;lon;timestamp;pressure;altitude;pressure_sealevel;temperature;humidity
60417;BME280;46263;44.726;10.396;2023-10-31T00:01:23;99009.44;;;19.63;69.32
60417;BME280;46263;44.726;10.396;2023-10-31T00:03:49;99014.75;;;19.69;69.39
60417;BME280;46263;44.726;10.396;2023-10-31T00:06:14;99020.66;;;19.61;67.83
60417;BME280;46263;44.726;10.396;2023-10-31T00:08:40;99010.56;;;19.70;67.70
60417;BME280;46263;44.726;10.396;2023-10-31T00:11:06;99012.50;;;19.79;68.75
60417;BME280;46263;44.726;10.396;2023-10-31T00:13:31;99014.09;;;19.82;69.21
60417;BME280;46263;44.726;10.396;2023-10-31T00:15:57;99018.66;;;19.87;69.25
60417;BME280;46263;44.726;10.396;2023-10-31T00:18:22;99023.69;;;19.88;71.55
60417;BME280;46263;44.726;10.396;2023-10-31T00:20:48;99022.94;;;19.88;71.70
60417;BME280;46263;44.726;10.396;2023-10-31T00:23:15;99031.34;;;19.86;72.31
60417;BME280;46263;44.726;10.396;2023-10-31T00:25:40;99031.34;;;19.86;73.00
60417;BME280;46263;44.726;10.396;2023-10-31T00:28:06;99028.41;;;19.84;74.27
60417;BME280;46263;44.726;10.396;2023-10-31T00:30:31;99019.88;;;19.84;72.90
60417;BME280;46263;44.726;10.396;2023-10-31T00:32:57;99017.69;;;19.82;73.21
60417;BME280;46263;44.726;10.396;2023-10-31T00:35:23;99013.97;;;19.80;71.71
60417;BME280;46263;44.726;10.396;2023-10-31T00:37:48;99006.59;;;19.75;69.71
60417;BME280;46263;44.726;10.396;2023-10-31T00:40:14;99001.41;;;19.71;67.39
60417;BME280;46263;44.726;10.396;2023-10-31T00:42:41;99002.53;;;19.78;66.64
60417;BME280;46263;44.726;10.396;2023-10-31T00:45:08;99012.22;;;19.86;65.76
60417;BME280;46263;44.726;10.396;2023-10-31T00:47:34;99015.91;;;19.89;64.88
60417;BME280;46263;44.726;10.396;2023-10-31T00:50:00;98998.41;;;19.92;65.83
60417;BME280;46263;44.726;10.396;2023-10-31T00:52:25;98993.47;;;19.93;65.56
60417;BME280;46263;44.726;10.396;2023-10-31T00:54:51;98985.22;;;19.97;65.67
60417;BME280;46263;44.726;10.396;2023-10-31T00:57:16;98988.63;;;20.06;66.84
60417;BME280;46263;44.726;10.396;2023-10-31T00:59:42;99001.81;;;20.13;70.44
60417;BME280;46263;44.726;10.396;2023-10-31T01:02:08;98992.97;;;20.07;71.55
60417;BME280;46263;44.726;10.396;2023-10-31T01:04:35;98994.44;;;20.08;71.83
60417;BME280;46263;44.726;10.396;2023-10-31T01:07:01;98991.25;;;20.03;71.63
60417;BME280;46263;44.726;10.396;2023-10-31T01:09:27;98982.63;;;20.01;73.16
60417;BME280;46263;44.726;10.396;2023-10-31T01:11:52;98968.31;;;19.99;72.75
60417;BME280;46263;44.726;10.396;2023-10-31T01:14:19;98961.78;;;19.96;73.80
60417;BME280;46263;44.726;10.396;2023-10-31T01:16:45;98963.00;;;19.93;72.58
60417;BME280;46263;44.726;10.396;2023-10-31T01:19:11;98955.75;;;19.90;72.34
60417;BME280;46263;44.726;10.396;2023-10-31T01:21:36;98971.81;;;19.86;70.96
60417;BME280;46263;44.726;10.396;2023-10-31T01:24:02;98964.66;;;19.85;72.29
60417;BME280;46263;44.726;10.396;2023-10-31T01:26:28;98955.78;;;19.79;70.90
60417;BME280;46263;44.726;10.396;2023-10-31T01:28:53;98955.78;;;19.79;70.62
60417;BME280;46263;44.726;10.396;2023-10-31T01:31:19;98967.63;;;19.75;72.03
60417;BME280;46263;44.726;10.396;2023-10-31T01:33:45;98963.44;;;19.76;72.56
60417;BME280;46263;44.726;10.396;2023-10-31T01:36:11;98966.16;;;19.74;72.57
60417;BME280;46263;44.726;10.396;2023-10-31T01:38:38;98958.03;;;19.69;72.45
60417;BME280;46263;44.726;10.396;2023-10-31T01:41:04;98955.31;;;19.71;73.44
60417;BME280;46263;44.726;10.396;2023-10-31T01:43:33;98956.44;;;19.66;73.22
60417;BME280;46263;44.726;10.396;2023-10-31T01:45:59;98952.75;;;19.63;73.96
60417;BME280;46263;44.726;10.396;2023-10-31T01:48:27;98948.94;;;19.59;74.05
60417;BME280;46263;44.726;10.396;2023-10-31T01:50:55;98941.31;;;19.50;72.85
60417;BME280;46263;44.726;10.396;2023-10-31T01:53:23;98938.47;;;19.50;73.10
60417;BME280;46263;44.726;10.396;2023-10-31T01:55:50;98938.13;;;19.44;73.25
60417;BME280;46263;44.726;10.396;2023-10-31T01:58:17;98936.53;;;19.41;72.46
60417;BME280;46263;44.726;10.396;2023-10-31T02:00:44;98933.81;;;19.43;73.44
60417;BME280;46263;44.726;10.396;2023-10-31T02:03:10;98936.53;;;19.41;73.74
60417;BME280;46263;44.726;10.396;2023-10-31T02:05:36;98929.28;;;19.38;73.22
60417;BME280;46263;44.726;10.396;2023-10-31T02:08:02;98934.06;;;19.35;73.65
60417;BME280;46263;44.726;10.396;2023-10-31T02:10:27;98935.19;;;19.30;74.75
60417;BME280;46263;44.726;10.396;2023-10-31T02:12:53;98927.06;;;19.25;75.11
60417;BME280;46263;44.726;10.396;2023-10-31T02:15:18;98913.03;;;19.27;75.30
60417;BME280;46263;44.726;10.396;2023-10-31T02:17:44;98915.72;;;19.25;75.03
60417;BME280;46263;44.726;10.396;2023-10-31T02:20:10;98898.72;;;19.25;75.02
60417;BME280;46263;44.726;10.396;2023-10-31T02:22:36;98903.56;;;19.11;75.33
60417;BME280;46263;44.726;10.396;2023-10-31T02:25:01;98895.41;;;19.17;75.17
60417;BME280;46263;44.726;10.396;2023-10-31T02:27:27;98890.88;;;19.12;75.78
60417;BME280;46263;44.726;10.396;2023-10-31T02:29:52;98889.41;;;19.11;75.55
60417;BME280;46263;44.726;10.396;2023-10-31T02:32:18;98889.25;;;19.09;75.40
60417;BME280;46263;44.726;10.396;2023-10-31T02:34:49;98887.03;;;19.08;75.03
60417;BME280;46263;44.726;10.396;2023-10-31T02:37:15;98887.63;;;19.06;74.95
60417;BME280;46263;44.726;10.396;2023-10-31T02:39:40;98885.09;;;19.10;74.80
60417;BME280;46263;44.726;10.396;2023-10-31T02:42:06;98886.69;;;19.13;74.00
60417;BME280;46263;44.726;10.396;2023-10-31T02:44:31;98897.16;;;19.11;73.67
60417;BME280;46263;44.726;10.396;2023-10-31T02:46:57;98878.44;;;19.17;74.67
60417;BME280;46263;44.726;10.396;2023-10-31T02:49:23;98882.09;;;19.20;75.32
60417;BME280;46263;44.726;10.396;2023-10-31T02:51:48;98887.03;;;19.19;76.19
60417;BME280;46263;44.726;10.396;2023-10-31T02:54:14;98874.88;;;19.17;76.40
60417;BME280;46263;44.726;10.396;2023-10-31T02:56:40;98871.53;;;19.20;74.82
60417;BME280;46263;44.726;10.396;2023-10-31T02:59:05;98876.34;;;19.18;75.08
60417;BME280;46263;44.726;10.396;2023-10-31T03:01:31;98873.25;;;19.14;76.20
60417;BME280;46263;44.726;10.396;2023-10-31T03:03:57;98853.66;;;19.06;75.57
60417;BME280;46263;44.726;10.396;2023-10-31T03:06:23;98843.06;;;19.07;76.35
60417;BME280;46263;44.726;10.396;2023-10-31T03:08:48;98846.63;;;19.07;74.81
60417;BME280;46263;44.726;10.396;2023-10-31T03:11:24;98847.63;;;19.12;72.15
60417;BME280;46263;44.726;10.396;2023-10-31T03:13:50;98860.91;;;19.21;71.62
60417;BME280;46263;44.726;10.396;2023-10-31T03:16:16;98857.38;;;19.20;68.99
60417;BME280;46263;44.726;10.396;2023-10-31T03:18:42;98860.53;;;19.26;68.61
60417;BME280;46263;44.726;10.396;2023-10-31T03:21:07;98850.06;;;19.28;68.19
60417;BME280;46263;44.726;10.396;2023-10-31T03:23:33;98829.00;;;19.31;67.80
60417;BME280;46263;44.726;10.396;2023-10-31T03:25:58;98835.25;;;19.41;67.65
60417;BME280;46263;44.726;10.396;2023-10-31T03:28:24;98848.53;;;19.39;68.85
60417;BME280;46263;44.726;10.396;2023-10-31T03:30:50;98846.94;;;19.47;69.50
60417;BME280;46263;44.726;10.396;2023-10-31T03:33:16;98829.94;;;19.47;70.67
60417;BME280;46263;44.726;10.396;2023-10-31T03:35:43;98822.28;;;19.50;71.76
60417;BME280;46263;44.726;10.396;2023-10-31T03:38:09;98823.03;;;19.50;69.98
60417;BME280;46263;44.726;10.396;2023-10-31T03:40:35;98831.16;;;19.44;71.53
60417;BME280;46263;44.726;10.396;2023-10-31T03:43:00;98834.13;;;19.46;70.85
60417;BME280;46263;44.726;10.396;2023-10-31T03:45:26;98842.16;;;19.38;72.34
60417;BME280;46263;44.726;10.396;2023-10-31T03:47:52;98851.16;;;19.35;70.30
60417;BME280;46263;44.726;10.396;2023-10-31T03:50:17;98832.16;;;19.37;71.01
60417;BME280;46263;44.726;10.396;2023-10-31T03:52:43;98825.03;;;19.36;70.38
60417;BME280;46263;44.726;10.396;2023-10-31T03:55:09;98822.56;;;19.31;67.74
60417;BME280;46263;44.726;10.396;2023-10-31T03:57:34;98841.19;;;19.34;68.77
60417;BME280;46263;44.726;10.396;2023-10-31T04:00:00;98827.25;;;19.38;67.15
60417;BME280;46263;44.726;10.396;2023-10-31T04:02:25;98827.97;;;19.38;67.16
60417;BME280;46263;44.726;10.396;2023-10-31T04:04:51;98837.38;;;19.29;67.54
60417;BME280;46263;44.726;10.396;2023-10-31T04:07:17;98850.53;;;19.36;63.22
60417;BME280;46263;44.726;10.396;2023-10-31T04:09:42;98845.50;;;19.35;61.74
60417;BME280;46263;44.726;10.396;2023-10-31T04:12:08;98850.78;;;19.40;59.83
60417;BME280;46263;44.726;10.396;2023-10-31T04:14:34;98858.78;;;19.44;59.64
60417;BME280;46263;44.726;10.396;2023-10-31T04:17:00;98871.22;;;19.50;59.81
60417;BME280;46263;44.726;10.396;2023-10-31T04:19:25;98857.00;;;19.62;60.58
60417;BME280;46263;44.726;10.396;2023-10-31T04:21:53;98845.34;;;19.69;61.27
60417;BME280;46263;44.726;10.396;2023-10-31T04:24:19;98831.56;;;19.64;59.87
60417;BME280;46263;44.726;10.396;2023-10-31T04:26:45;98846.09;;;19.70;61.28
60417;BME280;46263;44.726;10.396;2023-10-31T04:29:11;98822.16;;;19.73;61.11
60417;BME280;46263;44.726;10.396;2023-10-31T04:31:36;98819.84;;;19.69;60.49
60417;BME280;46263;44.726;10.396;2023-10-31T04:34:02;98825.16;;;19.63;61.53
60417;BME280;46263;44.726;10.396;2023-10-31T04:36:28;98812.97;;;19.61;61.47
60417;BME280;46263;44.726;10.396;2023-10-31T04:38:53;98784.00;;;19.37;54.69
60417;BME280;46263;44.726;10.396;2023-10-31T04:41:19;98752.66;;;19.47;54.26
60417;BME280;46263;44.726;10.396;2023-10-31T04:43:45;98754.38;;;19.52;55.98
60417;BME280;46263;44.726;10.396;2023-10-31T04:46:11;98773.75;;;19.44;58.69
60417;BME280;46263;44.726;10.396;2023-10-31T04:48:37;98765.81;;;19.54;55.44
60417;BME280;46263;44.726;10.396;2023-10-31T04:51:02;98737.16;;;19.61;56.37
60417;BME280;46263;44.726;10.396;2023-10-31T04:53:28;98754.47;;;19.54;55.35
60417;BME280;46263;44.726;10.396;2023-10-31T04:55:54;98764.34;;;19.53;54.58
60417;BME280;46263;44.726;10.396;2023-10-31T04:58:20;98796.19;;;19.65;55.44
60417;BME280;46263;44.726;10.396;2023-10-31T05:00:46;98787.91;;;19.69;55.15
60417;BME280;46263;44.726;10.396;2023-10-31T05:03:12;98786.44;;;19.68;53.51
60417;BME280;46263;44.726;10.396;2023-10-31T05:05:37;98797.97;;;19.58;53.10
60417;BME280;46263;44.726;10.396;2023-10-31T05:08:03;98820.34;;;19.66;52.07
60417;BME280;46263;44.726;10.396;2023-10-31T05:10:29;98839.81;;;19.71;50.95
60417;BME280;46263;44.726;10.396;2023-10-31T05:12:55;98857.00;;;19.87;51.87
60417;BME280;46263;44.726;10.396;2023-10-31T05:15:20;98863.06;;;19.81;52.06
60417;BME280;46263;44.726;10.396;2023-10-31T05:17:47;98880.47;;;19.76;51.46
60417;BME280;46263;44.726;10.396;2023-10-31T05:20:13;98889.69;;;19.76;51.70
60417;BME280;46263;44.726;10.396;2023-10-31T05:22:40;98913.13;;;19.77;55.58
60417;BME280;46263;44.726;10.396;2023-10-31T05:25:06;98910.75;;;19.85;56.24
60417;BME280;46263;44.726;10.396;2023-10-31T05:27:32;98938.66;;;19.77;57.25
60417;BME280;46263;44.726;10.396;2023-10-31T05:29:57;98934.38;;;19.64;56.32
60417;BME280;46263;44.726;10.396;2023-10-31T05:32:23;98948.66;;;19.78;57.88
60417;BME280;46263;44.726;10.396;2023-10-31T05:34:48;98935.03;;;19.88;56.06
60417;BME280;46263;44.726;10.396;2023-10-31T05:37:14;98930.59;;;19.96;56.05
60417;BME280;46263;44.726;10.396;2023-10-31T05:39:40;98930.09;;;20.00;55.48
60417;BME280;46263;44.726;10.396;2023-10-31T05:42:05;98953.34;;;20.09;56.50
60417;BME280;46263;44.726;10.396;2023-10-31T05:44:31;98981.03;;;19.98;57.04
60417;BME280;46263;44.726;10.396;2023-10-31T05:46:56;98986.81;;;20.00;58.01
60417;BME280;46263;44.726;10.396;2023-10-31T05:49:22;99008.50;;;20.06;58.68
60417;BME280;46263;44.726;10.396;2023-10-31T05:51:51;99028.13;;;20.03;59.51
60417;BME280;46263;44.726;10.396;2023-10-31T05:54:17;99014.81;;;20.05;60.40
60417;BME280;46263;44.726;10.396;2023-10-31T05:56:43;99007.81;;;19.95;58.94
60417;BME280;46263;44.726;10.396;2023-10-31T05:59:10;98991.00;;;19.99;59.73
60417;BME280;46263;44.726;10.396;2023-10-31T06:01:36;98984.84;;;19.91;60.61
60417;BME280;46263;44.726;10.396;2023-10-31T06:04:02;98984.16;;;19.67;55.98
60417;BME280;46263;44.726;10.396;2023-10-31T06:06:29;99020.28;;;19.78;54.83
60417;BME280;46263;44.726;10.396;2023-10-31T06:08:54;99030.38;;;19.81;53.85
60417;BME280;46263;44.726;10.396;2023-10-31T06:11:20;99052.69;;;19.75;55.58
60417;BME280;46263;44.726;10.396;2023-10-31T06:13:46;99059.34;;;19.80;56.83
60417;BME280;46263;44.726;10.396;2023-10-31T06:16:13;99055.78;;;19.68;57.12
60417;BME280;46263;44.726;10.396;2023-10-31T06:18:39;99064.78;;;19.76;57.46
60417;BME280;46263;44.726;10.396;2023-10-31T06:21:06;99077.47;;;19.75;57.81
60417;BME280;46263;44.726;10.396;2023-10-31T06:23:33;99081.06;;;19.64;57.66
60417;BME280;46263;44.726;10.396;2023-10-31T06:25:58;99089.69;;;19.54;56.50
60417;BME280;46263;44.726;10.396;2023-10-31T06:28:24;99094.16;;;19.46;57.56
60417;BME280;46263;44.726;10.396;2023-10-31T06:30:49;99110.16;;;19.53;57.69
60417;BME280;46263;44.726;10.396;2023-10-31T06:33:15;99115.19;;;19.43;58.58
60417;BME280;46263;44.726;10.396;2023-10-31T06:35:41;99119.53;;;19.44;59.28
60417;BME280;46263;44.726;10.396;2023-10-31T06:38:06;99131.41;;;19.20;59.45
60417;BME280;46263;44.726;10.396;2023-10-31T06:40:32;99160.00;;;19.12;60.18
60417;BME280;46263;44.726;10.396;2023-10-31T06:42:58;99200.31;;;18.69;59.06
60417;BME280;46263;44.726;10.396;2023-10-31T06:45:24;99210.75;;;18.15;60.26
60417;BME280;46263;44.726;10.396;2023-10-31T06:47:50;99225.78;;;17.87;63.14
60417;BME280;46263;44.726;10.396;2023-10-31T06:50:15;99227.38;;;17.90;65.25
60417;BME280;46263;44.726;10.396;2023-10-31T06:52:41;99231.06;;;17.53;68.90
60417;BME280;46263;44.726;10.396;2023-10-31T06:55:07;99233.66;;;17.40;68.74
60417;BME280;46263;44.726;10.396;2023-10-31T06:57:32;99231.25;;;17.27;69.76
60417;BME280;46263;44.726;10.396;2023-10-31T06:59:58;99240.94;;;17.33;70.37
60417;BME280;46263;44.726;10.396;2023-10-31T07:02:24;99258.03;;;17.16;70.17
60417;BME280;46263;44.726;10.396;2023-10-31T07:04:51;99261.00;;;17.28;70.54
60417;BME280;46263;44.726;10.396;2023-10-31T07:07:16;99282.09;;;17.27;71.22
60417;BME280;46263;44.726;10.396;2023-10-31T07:09:42;99288.78;;;17.12;72.22
60417;BME280;46263;44.726;10.396;2023-10-31T07:12:07;99293.22;;;16.96;72.03
60417;BME280;46263;44.726;10.396;2023-10-31T07:14:33;99292.63;;;16.88;72.00
60417;BME280;46263;44.726;10.396;2023-10-31T07:16:59;99295.63;;;17.09;71.23
60417;BME280;46263;44.726;10.396;2023-10-31T07:19:24;99305.59;;;17.10;71.23
60417;BME280;46263;44.726;10.396;2023-10-31T07:21:50;99296.66;;;17.23;70.84
60417;BME280;46263;44.726;10.396;2023-10-31T07:24:16;99294.28;;;17.29;69.72
60417;BME280;46263;44.726;10.396;2023-10-31T07:26:41;99292.84;;;17.28;68.71
60417;BME280;46263;44.726;10.396;2023-10-31T07:29:07;99287.19;;;17.28;69.17
60417;BME280;46263;44.726;10.396;2023-10-31T07:31:33;99302.75;;;17.20;67.98
60417;BME280;46263;44.726;10.396;2023-10-31T07:33:59;99295.47;;;17.17;67.57
60417;BME280;46263;44.726;10.396;2023-10-31T07:36:25;99291.31;;;17.18;67.26
60417;BME280;46263;44.726;10.396;2023-10-31T07:38:50;99284.03;;;17.15;66.51
60417;BME280;46263;44.726;10.396;2023-10-31T07:41:16;99295.63;;;17.19;65.16
60417;BME280;46263;44.726;10.396;2023-10-31T07:43:41;99311.38;;;17.12;64.10
60417;BME280;46263;44.726;10.396;2023-10-31T07:46:07;99308.25;;;17.27;65.54
60417;BME280;46263;44.726;10.396;2023-10-31T07:48:32;99317.75;;;17.22;64.13
60417;BME280;46263;44.726;10.396;2023-10-31T07:50:58;99302.78;;;17.29;64.35
60417;BME280;46263;44.726;10.396;2023-10-31T07:53:24;99301.72;;;17.15;63.35
60417;BME280;46263;44.726;10.396;2023-10-31T07:55:49;99325.94;;;17.18;62.14
60417;BME280;46263;44.726;10.396;2023-10-31T07:58:15;99334.72;;;17.22;62.98
60417;BME280;46263;44.726;10.396;2023-10-31T08:00:41;99329.22;;;17.24;62.75
60417;BME280;46263;44.726;10.396;2023-10-31T08:03:06;99322.53;;;17.10;61.63
60417;BME280;46263;44.726;10.396;2023-10-31T08:05:32;99348.81;;;17.22;61.87
60417;BME280;46263;44.726;10.396;2023-10-31T08:07:57;99345.69;;;17.09;60.85
60417;BME280;46263;44.726;10.396;2023-10-31T08:10:23;99351.81;;;17.24;60.48
60417;BME280;46263;44.726;10.396;2023-10-31T08:12:49;99372.47;;;17.27;60.77
60417;BME280;46263;44.726;10.396;2023-10-31T08:15:15;99363.13;;;17.34;58.22
60417;BME280;46263;44.726;10.396;2023-10-31T08:17:42;99346.63;;;17.30;59.78
60417;BME280;46263;44.726;10.396;2023-10-31T08:20:08;99371.91;;;17.38;59.80
60417;BME280;46263;44.726;10.396;2023-10-31T08:22:35;99371.47;;;17.60;59.14
60417;BME280;46263;44.726;10.396;2023-10-31T08:25:01;99368.63;;;17.69;59.57
60417;BME280;46263;44.726;10.396;2023-10-31T08:27:26;99368.78;;;17.81;59.11
60417;BME280;46263;44.726;10.396;2023-10-31T08:29:52;99382.84;;;18.09;58.96
60417;BME280;46263;44.726;10.396;2023-10-31T08:32:17;99383.44;;;18.17;58.73
60417;BME280;46263;44.726;10.396;2023-10-31T08:34:43;99379.09;;;18.16;58.33
60417;BME280;46263;44.726;10.396;2023-10-31T08:37:09;99389.97;;;18.20;58.84
60417;BME280;46263;44.726;10.396;2023-10-31T08:39:34;99409.94;;;18.12;58.25
60417;BME280;46263;44.726;10.396;2023-10-31T08:42:00;99419.66;;;18.00;58.69
60417;BME280;46263;44.726;10.396;2023-10-31T08:44:26;99409.50;;;18.16;58.69
60417;BME280;46263;44.726;10.396;2023-10-31T08:46:52;99432.88;;;18.07;58.75
60417;BME280;46263;44.726;10.396;2023-10-31T08:49:18;99429.88;;;18.14;59.02
60417;BME280;46263;44.726;10.396;2023-10-31T08:51:44;99435.69;;;18.26;59.63
60417;BME280;46263;44.726;10.396;2023-10-31T08:54:10;99434.34;;;18.27;58.64
60417;BME280;46263;44.726;10.396;2023-10-31T08:56:36;99440.13;;;18.47;58.41
60417;BME280;46263;44.726;10.396;2023-10-31T08:59:02;99444.75;;;18.34;58.04
60417;BME280;46263;44.726;10.396;2023-10-31T09:01:28;99442.22;;;18.19;57.52
60417;BME280;46263;44.726;10.396;2023-10-31T09:03:56;99454.59;;;18.14;57.46
60417;BME280;46263;44.726;10.396;2023-10-31T09:06:24;99443.44;;;18.16;57.25
60417;BME280;46263;44.726;10.396;2023-10-31T09:08:49;99439.56;;;18.11;56.00
60417;BME280;46263;44.726;10.396;2023-10-31T09:11:15;99447.88;;;18.19;57.04
60417;BME280;46263;44.726;10.396;2023-10-31T09:13:44;99452.94;;;18.11;56.23
60417;BME280;46263;44.726;10.396;2023-10-31T09:16:10;99449.69;;;18.24;56.95
60417;BME280;46263;44.726;10.396;2023-10-31T09:18:36;99458.63;;;18.30;56.26
60417;BME280;46263;44.726;10.396;2023-10-31T09:21:02;99463.84;;;18.24;56.44
60417;BME280;46263;44.726;10.396;2023-10-31T09:23:27;99466.06;;;18.25;56.17
60417;BME280;46263;44.726;10.396;2023-10-31T09:25:54;99468.28;;;18.36;56.98
60417;BME280;46263;44.726;10.396;2023-10-31T09:28:20;99470.34;;;18.45;56.46
60417;BME280;46263;44.726;10.396;2023-10-31T09:30:46;99467.25;;;18.32;54.65
60417;BME280;46263;44.726;10.396;2023-10-31T09:33:14;99467.69;;;18.38;55.36
60417;BME280;46263;44.726;10.396;2023-10-31T09:35:39;99475.44;;;18.37;55.35
60417;BME280;46263;44.726;10.396;2023-10-31T09:38:05;99478.00;;;18.24;54.97
60417;BME280;46263;44.726;10.396;2023-10-31T09:40:31;99481.84;;;18.38;55.52
60417;BME280;46263;44.726;10.396;2023-10-31T09:42:57;99483.31;;;18.39;54.19
60417;BME280;46263;44.726;10.396;2023-10-31T09:45:24;99497.00;;;18.51;54.89
60417;BME280;46263;44.726;10.396;2023-10-31T09:47:49;99486.41;;;18.61;54.52
60417;BME280;46263;44.726;10.396;2023-10-31T09:50:15;99500.09;;;18.65;52.95
60417;BME280;46263;44.726;10.396;2023-10-31T09:52:41;99511.41;;;18.65;53.54
60417;BME280;46263;44.726;10.396;2023-10-31T09:55:07;99501.09;;;18.79;52.93
60417;BME280;46263;44.726;10.396;2023-10-31T09:57:33;99508.84;;;18.78;52.05
60417;BME280;46263;44.726;10.396;2023-10-31T09:59:59;99492.56;;;18.88;52.61
60417;BME280;46263;44.726;10.396;2023-10-31T10:02:24;99498.34;;;19.00;52.97
60417;BME280;46263;44.726;10.396;2023-10-31T10:04:50;99503.81;;;19.17;52.38
60417;BME280;46263;44.726;10.396;2023-10-31T10:07:17;99509.78;;;19.11;51.30
60417;BME280;46263;44.726;10.396;2023-10-31T10:09:44;99507.53;;;19.19;51.77
60417;BME280;46263;44.726;10.396;2023-10-31T10:12:12;99506.22;;;19.41;52.47
60417;BME280;46263;44.726;10.396;2023-10-31T10:14:42;99508.56;;;19.44;51.16
60417;BME280;46263;44.726;10.396;2023-10-31T10:17:20;99505.19;;;19.36;48.67
60417;BME280;46263;44.726;10.396;2023-10-31T10:19:46;99507.31;;;19.57;51.13
60417;BME280;46263;44.726;10.396;2023-10-31T10:22:12;99504.44;;;19.66;50.33
60417;BME280;46263;44.726;10.396;2023-10-31T10:24:40;99512.84;;;19.76;50.76
60417;BME280;46263;44.726;10.396;2023-10-31T10:27:07;99516.72;;;19.80;50.05
60417;BME280;46263;44.726;10.396;2023-10-31T10:29:38;99510.41;;;19.82;49.33
60417;BME280;46263;44.726;10.396;2023-10-31T10:32:07;99517.44;;;19.81;49.64
60417;BME280;46263;44.726;10.396;2023-10-31T10:34:34;99508.25;;;19.92;49.77
60417;BME280;46263;44.726;10.396;2023-10-31T10:37:01;99510.34;;;19.91;49.54
60417;BME280;46263;44.726;10.396;2023-10-31T10:39:32;99511.56;;;20.09;50.37
60417;BME280;46263;44.726;10.396;2023-10-31T10:42:00;99505.16;;;20.08;50.10
60417;BME280;46263;44.726;10.396;2023-10-31T10:44:36;99509.00;;;20.13;49.28
60417;BME280;46263;44.726;10.396;2023-10-31T10:47:05;99503.78;;;20.30;50.24
60417;BME280;46263;44.726;10.396;2023-10-31T10:49:33;99505.53;;;20.35;47.92
60417;BME280;46263;44.726;10.396;2023-10-31T10:52:22;99499.50;;;20.52;48.55
60417;BME280;46263;44.726;10.396;2023-10-31T10:55:04;99501.31;;;20.36;46.89
60417;BME280;46263;44.726;10.396;2023-10-31T11:00:04;99491.97;;;20.45;48.07
60417;BME280;46263;44.726;10.396;2023-10-31T11:02:32;99498.44;;;20.57;49.28
60417;BME280;46263;44.726;10.396;2023-10-31T11:04:57;99487.81;;;20.69;49.26
60417;BME280;46263;44.726;10.396;2023-10-31T11:07:25;99480.44;;;20.76;48.30
60417;BME280;46263;44.726;10.396;2023-10-31T11:09:54;99477.13;;;20.79;47.77
60417;BME280;46263;44.726;10.396;2023-10-31T11:12:22;99475.56;;;20.88;46.43
60417;BME280;46263;44.726;10.396;2023-10-31T11:14:49;99470.72;;;20.90;46.51
60417;BME280;46263;44.726;10.396;2023-10-31T11:17:24;99473.94;;;20.96;45.48
60417;BME280;46263;44.726;10.396;2023-10-31T11:19:52;99482.72;;;21.00;46.29
60417;BME280;46263;44.726;10.396;2023-10-31T11:22:18;99475.16;;;21.04;46.25
60417;BME280;46263;44.726;10.396;2023-10-31T11:24:44;99477.13;;;21.13;44.21
60417;BME280;46263;44.726;10.396;2023-10-31T11:27:10;99473.94;;;21.19;43.60
60417;BME280;46263;44.726;10.396;2023-10-31T11:29:36;99470.59;;;21.22;44.48
60417;BME280;46263;44.726;10.396;2023-10-31T11:32:02;99473.31;;;21.32;45.22
60417;BME280;46263;44.726;10.396;2023-10-31T11:34:30;99465.91;;;21.27;43.56
60417;BME280;46263;44.726;10.396;2023-10-31T11:37:35;99462.19;;;21.36;43.24
60417;BME280;46263;44.726;10.396;2023-10-31T11:42:38;99467.22;;;21.49;43.05
60417;BME280;46263;44.726;10.396;2023-10-31T11:45:04;99463.88;;;21.41;43.84
60417;BME280;46263;44.726;10.396;2023-10-31T11:47:49;99460.94;;;21.62;45.75
60417;BME280;46263;44.726;10.396;2023-10-31T11:50:17;99465.38;;;21.65;45.09
60417;BME280;46263;44.726;10.396;2023-10-31T11:52:43;99454.00;;;21.65;44.86
60417;BME280;46263;44.726;10.396;2023-10-31T11:55:10;99444.34;;;21.69;45.10
60417;BME280;46263;44.726;10.396;2023-10-31T11:57:36;99453.22;;;21.75;44.72
60417;BME280;46263;44.726;10.396;2023-10-31T12:00:03;99456.31;;;21.79;44.94
60417;BME280;46263;44.726;10.396;2023-10-31T12:02:29;99455.16;;;21.84;44.85
60417;BME280;46263;44.726;10.396;2023-10-31T12:05:12;99460.63;;;21.80;45.41
60417;BME280;46263;44.726;10.396;2023-10-31T12:07:43;99472.50;;;21.88;44.15
60417;BME280;46263;44.726;10.396;2023-10-31T12:10:08;99470.22;;;21.98;45.23
60417;BME280;46263;44.726;10.396;2023-10-31T12:12:35;99476.59;;;22.10;46.50
60417;BME280;46263;44.726;10.396;2023-10-31T12:15:07;99465.72;;;22.07;46.34
60417;BME280;46263;44.726;10.396;2023-10-31T12:17:34;99471.38;;;22.18;46.30
60417;BME280;46263;44.726;10.396;2023-10-31T12:20:06;99467.09;;;22.06;45.33
60417;BME280;46263;44.726;10.396;2023-10-31T12:22:33;99468.69;;;22.09;43.75
60417;BME280;46263;44.726;10.396;2023-10-31T12:25:03;99469.88;;;22.17;44.49
60417;BME280;46263;44.726;10.396;2023-10-31T12:27:45;99473.84;;;22.24;43.99
60417;BME280;46263;44.726;10.396;2023-10-31T12:30:18;99465.16;;;22.22;44.42
60417;BME280;46263;44.726;10.396;2023-10-31T12:32:45;99466.50;;;22.32;45.61
60417;BME280;46263;44.726;10.396;2023-10-31T12:35:13;99474.78;;;22.40;44.06
60417;BME280;46263;44.726;10.396;2023-10-31T12:37:45;99474.59;;;22.49;45.40
60417;BME280;46263;44.726;10.396;2023-10-31T12:40:16;99476.59;;;22.47;44.14
60417;BME280;46263;44.726;10.396;2023-10-31T12:42:46;99473.94;;;22.50;42.69
60417;BME280;46263;44.726;10.396;2023-10-31T12:45:13;99472.41;;;22.61;43.33
60417;BME280;46263;44.726;10.396;2023-10-31T12:47:40;99477.09;;;22.68;44.10
60417;BME280;46263;44.726;10.396;2023-10-31T12:50:13;99470.34;;;22.75;43.53
60417;BME280;46263;44.726;10.396;2023-10-31T12:52:50;99477.00;;;22.79;42.70